Time;durP1;ratioP1;P1;durP2;ratioP2;P2;SDS_P1;SDS_P2;PMS_P1;PMS_P2;Temp;Humidity;BMP_temperature;BMP_pressure;BME280_temperature;BME280_humidity;BME280_pressure;Samples;Min_cycle;Max_cycle;Signal;HPM_P1;HPM_P2
2022/06/07 00:00:36;;;;;;;5.85;1.60;;;15.20;99.90;;;;;;5011486;28;20026;-47
2022/06/07 00:03:03;;;;;;;1.42;1.33;;;15.20;99.90;;;;;;5019323;28;20018;-48
2022/06/07 00:05:29;;;;;;;1.15;1.05;;;15.10;99.90;;;;;;5008002;28;20041;-50
2022/06/07 00:07:55;;;;;;;2.15;1.33;;;15.10;99.90;;;;;;5008382;28;20018;-50
2022/06/07 00:10:24;;;;;;;7.88;1.40;;;15.00;99.90;;;;;;5013664;28;20022;-48
2022/06/07 00:12:50;;;;;;;2.67;1.42;;;15.00;99.90;;;;;;5022422;28;20026;-50
2022/06/07 00:15:16;;;;;;;2.63;1.38;;;14.90;99.90;;;;;;5008187;28;20495;-49
2022/06/07 00:17:41;;;;;;;2.08;1.70;;;14.90;99.90;;;;;;5011846;28;20029;-47
2022/06/07 00:20:08;;;;;;;2.08;1.27;;;14.80;99.90;;;;;;5018690;28;20033;-48
2022/06/07 00:22:33;;;;;;;4.25;1.73;;;14.70;99.90;;;;;;5030594;28;20064;-47
2022/06/07 00:24:59;;;;;;;1.73;1.30;;;14.60;99.90;;;;;;5024302;28;20061;-47
2022/06/07 00:27:25;;;;;;;2.97;1.73;;;14.60;99.90;;;;;;5011479;28;20022;-47
2022/06/07 00:29:51;;;;;;;3.67;1.52;;;14.50;99.90;;;;;;5011170;28;20034;-47
2022/06/07 00:32:18;;;;;;;5.95;1.30;;;14.50;99.90;;;;;;5020471;28;20029;-47
2022/06/07 00:34:44;;;;;;;1.98;1.42;;;14.50;99.90;;;;;;5018143;28;20026;-47
2022/06/07 00:37:11;;;;;;;2.33;1.33;;;14.50;99.90;;;;;;5011256;28;20041;-47
2022/06/07 00:39:36;;;;;;;1.77;1.30;;;14.40;99.90;;;;;;5010846;28;20033;-47
2022/06/07 00:42:02;;;;;;;5.65;1.38;;;14.40;99.90;;;;;;5011436;28;20034;-47
2022/06/07 00:44:33;;;;;;;3.85;1.67;;;14.40;99.90;;;;;;5011687;28;20032;-50
2022/06/07 00:47:04;;;;;;;1.63;1.52;;;14.30;99.90;;;;;;5011125;28;20375;-49
2022/06/07 00:49:34;;;;;;;5.97;1.63;;;14.30;99.90;;;;;;5010922;28;20022;-51
2022/06/07 00:52:00;;;;;;;6.13;1.30;;;14.30;99.90;;;;;;5025698;28;20538;-48
2022/06/07 00:54:29;;;;;;;1.88;1.45;;;14.30;99.90;;;;;;5029064;28;20040;-49
2022/06/07 00:56:56;;;;;;;3.60;1.60;;;14.30;99.90;;;;;;5030508;28;20494;-48
2022/06/07 00:59:22;;;;;;;2.13;1.73;;;14.30;99.90;;;;;;5030500;28;20037;-47
2022/06/07 01:01:50;;;;;;;2.22;1.70;;;14.20;99.90;;;;;;5028431;28;20474;-47
2022/06/07 01:04:16;;;;;;;3.67;1.60;;;14.20;99.90;;;;;;5021471;28;20026;-50
2022/06/07 01:12:11;;;;;;;4.03;1.90;;;14.00;99.90;;;;;;5030494;28;20517;-50
2022/06/07 01:14:37;;;;;;;6.15;2.30;;;13.80;99.90;;;;;;5029986;28;20168;-48
2022/06/07 01:17:04;;;;;;;2.55;1.95;;;13.70;99.90;;;;;;5030029;28;20478;-48
2022/06/07 01:19:29;;;;;;;4.90;2.10;;;13.50;99.90;;;;;;5026723;28;20228;-48
2022/06/07 01:21:55;;;;;;;4.32;2.13;;;13.50;99.90;;;;;;5020748;28;20033;-50
2022/06/07 01:24:21;;;;;;;4.18;2.38;;;13.40;99.90;;;;;;5025881;28;20048;-47
2022/06/07 01:26:46;;;;;;;4.15;2.13;;;13.30;99.90;;;;;;5023058;28;20041;-50
2022/06/07 01:29:14;;;;;;;8.10;2.65;;;13.30;99.90;;;;;;5028947;28;20030;-48
2022/06/07 01:31:40;;;;;;;6.63;2.53;;;13.20;99.90;;;;;;5028638;28;20032;-47
2022/06/07 01:34:05;;;;;;;4.90;2.80;;;13.20;99.90;;;;;;5020955;28;20030;-47
2022/06/07 01:36:31;;;;;;;5.25;2.65;;;13.20;99.90;;;;;;5010895;28;20034;-47
2022/06/07 01:41:56;;;;;;;6.82;2.22;;;13.20;99.90;;;;;;5009768;28;20032;-49
2022/06/07 01:44:29;;;;;;;5.15;2.70;;;13.20;99.90;;;;;;5009993;28;20026;-51
2022/06/07 01:46:57;;;;;;;5.00;2.33;;;13.20;99.90;;;;;;5008775;28;20029;-47
2022/06/07 01:49:23;;;;;;;8.43;2.38;;;13.10;99.90;;;;;;5008642;28;20403;-47
2022/06/07 01:51:50;;;;;;;4.72;2.58;;;13.20;99.90;;;;;;5008027;28;20026;-48
2022/06/07 01:54:16;;;;;;;3.53;2.42;;;13.10;99.90;;;;;;5008641;28;20053;-50
2022/06/07 01:56:42;;;;;;;5.97;2.33;;;13.10;99.90;;;;;;5009950;28;20045;-50
2022/06/07 01:59:08;;;;;;;3.30;2.20;;;13.20;99.90;;;;;;5010397;28;20029;-48
2022/06/07 02:01:34;;;;;;;3.45;2.38;;;13.20;99.90;;;;;;5012698;28;20021;-48
2022/06/07 02:04:00;;;;;;;6.07;2.50;;;13.20;99.90;;;;;;5022267;28;20131;-47
2022/06/07 02:06:25;;;;;;;4.75;2.25;;;13.20;99.90;;;;;;5009711;28;20069;-47
2022/06/07 02:08:51;;;;;;;7.60;2.55;;;13.20;99.90;;;;;;5009685;28;20523;-48
2022/06/07 02:11:20;;;;;;;4.88;2.47;;;13.20;99.90;;;;;;5008936;28;20026;-48
2022/06/07 02:13:46;;;;;;;3.63;2.25;;;13.10;99.90;;;;;;5009852;28;20021;-47
2022/06/07 02:16:12;;;;;;;4.22;2.13;;;13.10;99.90;;;;;;5008192;28;20514;-48
2022/06/07 02:18:38;;;;;;;3.95;2.45;;;13.00;99.90;;;;;;5009446;28;20034;-48
2022/06/07 02:21:04;;;;;;;3.08;2.75;;;13.00;99.90;;;;;;5008906;28;20033;-48
2022/06/07 02:23:32;;;;;;;3.40;1.80;;;13.00;99.90;;;;;;5009511;28;20037;-49
2022/06/07 02:26:01;;;;;;;7.03;2.55;;;13.10;99.90;;;;;;5013790;28;20471;-49
2022/06/07 02:28:30;;;;;;;5.78;2.33;;;13.10;99.90;;;;;;5009226;28;20037;-48
2022/06/07 02:30:57;;;;;;;3.70;2.05;;;13.10;99.90;;;;;;5008749;28;20129;-50
2022/06/07 02:33:23;;;;;;;3.85;2.13;;;13.00;99.90;;;;;;5024148;28;20018;-48
2022/06/07 02:35:49;;;;;;;2.72;1.95;;;13.10;99.90;;;;;;5009239;28;20245;-48
2022/06/07 02:38:16;;;;;;;5.35;1.73;;;13.10;99.90;;;;;;5008905;28;20030;-50
2022/06/07 02:40:45;;;;;;;4.07;1.80;;;13.10;99.90;;;;;;5008598;28;20458;-48
2022/06/07 02:43:11;;;;;;;4.30;1.88;;;13.10;99.90;;;;;;5009271;28;20346;-47
2022/06/07 02:45:36;;;;;;;3.50;1.98;;;13.10;99.90;;;;;;5008918;28;20062;-48
2022/06/07 02:48:02;;;;;;;3.38;2.10;;;13.10;99.90;;;;;;5007583;28;20509;-48
2022/06/07 02:50:28;;;;;;;3.35;2.20;;;13.10;99.90;;;;;;5008506;28;20497;-50
2022/06/07 02:52:53;;;;;;;2.67;1.90;;;13.20;99.90;;;;;;5008941;28;20591;-49
2022/06/07 02:55:19;;;;;;;4.75;2.22;;;13.10;99.90;;;;;;5009179;28;20380;-51
2022/06/07 02:57:44;;;;;;;5.47;2.50;;;13.00;99.90;;;;;;5008873;28;20112;-48
2022/06/07 03:00:13;;;;;;;5.20;3.22;;;13.00;99.90;;;;;;5007292;28;20576;-50
2022/06/07 03:02:39;;;;;;;4.57;2.45;;;13.00;99.90;;;;;;5021029;28;20061;-47
2022/06/07 03:05:05;;;;;;;6.10;2.80;;;13.10;99.90;;;;;;5012559;28;20073;-48
2022/06/07 03:07:31;;;;;;;5.88;3.05;;;13.10;99.90;;;;;;5008748;28;20040;-49
2022/06/07 03:09:56;;;;;;;4.20;2.38;;;13.10;99.90;;;;;;5008222;28;20105;-49
2022/06/07 03:12:22;;;;;;;4.97;3.03;;;13.10;99.90;;;;;;5009128;28;20022;-50
2022/06/07 03:14:47;;;;;;;12.30;3.10;;;13.10;99.90;;;;;;5008985;28;20067;-48
2022/06/07 03:17:13;;;;;;;9.60;2.97;;;13.10;99.90;;;;;;5008639;28;20364;-47
2022/06/07 03:19:39;;;;;;;4.20;3.17;;;13.20;99.90;;;;;;5006814;28;20037;-47
2022/06/07 03:22:07;;;;;;;7.35;2.75;;;13.20;99.90;;;;;;5008777;28;20022;-46
2022/06/07 03:24:33;;;;;;;5.05;2.67;;;13.10;99.90;;;;;;5008634;28;20022;-47
2022/06/07 03:26:59;;;;;;;4.47;2.78;;;13.10;99.90;;;;;;5008735;28;20391;-47
2022/06/07 03:29:24;;;;;;;5.57;2.53;;;13.10;99.90;;;;;;5008695;28;20033;-47
2022/06/07 03:31:50;;;;;;;6.95;2.72;;;13.10;99.90;;;;;;5013891;28;20026;-47
2022/06/07 03:34:15;;;;;;;5.60;3.10;;;13.10;99.90;;;;;;5017701;28;20026;-46
2022/06/07 03:36:41;;;;;;;5.75;2.92;;;13.10;99.90;;;;;;5008525;28;20034;-46
2022/06/07 03:39:08;;;;;;;6.97;2.83;;;13.10;99.90;;;;;;5008651;28;20041;-47
2022/06/07 03:41:35;;;;;;;4.30;3.15;;;13.20;99.90;;;;;;5007911;28;20101;-46
2022/06/07 03:44:01;;;;;;;5.30;2.78;;;13.20;99.90;;;;;;5008477;28;20217;-47
2022/06/07 03:46:28;;;;;;;5.15;2.67;;;13.30;99.90;;;;;;5008467;28;20026;-46
2022/06/07 03:48:54;;;;;;;7.78;2.38;;;13.30;99.90;;;;;;5008344;28;20124;-47
2022/06/07 03:51:22;;;;;;;9.82;2.80;;;13.40;99.90;;;;;;5010818;28;20113;-47
2022/06/07 03:53:49;;;;;;;4.25;3.00;;;13.40;99.90;;;;;;5012432;28;20025;-47
2022/06/07 03:56:15;;;;;;;7.75;3.05;;;13.50;99.90;;;;;;5012180;28;20499;-49
2022/06/07 03:58:41;;;;;;;10.70;2.75;;;13.50;99.90;;;;;;5012259;28;20132;-50
2022/06/07 04:01:09;;;;;;;5.45;2.85;;;13.60;99.90;;;;;;5011340;28;20105;-46
2022/06/07 04:03:35;;;;;;;4.95;2.53;;;13.60;99.90;;;;;;5023391;28;20091;-47
2022/06/07 04:06:00;;;;;;;5.25;2.47;;;13.60;99.90;;;;;;5031661;28;20021;-51
2022/06/07 04:08:26;;;;;;;6.50;3.25;;;13.60;99.90;;;;;;5031684;28;20022;-47
2022/06/07 04:10:52;;;;;;;4.30;2.60;;;13.70;99.90;;;;;;5031194;28;20023;-49
2022/06/07 04:13:20;;;;;;;8.32;3.28;;;13.70;99.90;;;;;;5031508;28;20026;-49
2022/06/07 04:15:45;;;;;;;6.95;2.92;;;13.60;99.90;;;;;;5031741;28;20037;-48
2022/06/07 04:18:11;;;;;;;10.23;3.38;;;13.70;99.90;;;;;;5031256;28;20037;-48
2022/06/07 04:20:38;;;;;;;7.53;3.50;;;13.70;99.90;;;;;;5030879;28;20085;-46
2022/06/07 04:23:04;;;;;;;8.90;3.42;;;13.70;99.90;;;;;;5013807;28;20078;-48
2022/06/07 04:25:30;;;;;;;6.85;3.42;;;13.70;99.90;;;;;;5031352;28;20033;-48
2022/06/07 04:27:55;;;;;;;6.20;2.65;;;13.70;99.90;;;;;;5031576;28;20025;-46
2022/06/07 04:30:21;;;;;;;7.30;3.85;;;13.70;99.90;;;;;;5030867;28;20128;-45
2022/06/07 04:32:47;;;;;;;5.60;3.00;;;13.70;99.90;;;;;;5031007;28;20064;-45
2022/06/07 04:35:17;;;;;;;5.72;3.20;;;13.70;99.90;;;;;;5022852;28;20117;-47
2022/06/07 04:37:44;;;;;;;5.20;3.08;;;13.70;99.90;;;;;;5030118;28;20074;-46
2022/06/07 04:40:10;;;;;;;12.88;3.70;;;13.70;99.90;;;;;;5030456;28;20045;-47
2022/06/07 04:42:36;;;;;;;7.38;2.75;;;13.80;99.90;;;;;;5030961;28;20033;-46
2022/06/07 04:45:02;;;;;;;6.93;3.03;;;13.80;99.90;;;;;;5030869;28;20047;-45
2022/06/07 04:47:27;;;;;;;6.05;3.22;;;13.80;99.90;;;;;;5030959;28;20049;-46
2022/06/07 04:49:53;;;;;;;6.20;2.60;;;13.90;99.90;;;;;;5030441;28;20573;-47
2022/06/07 04:52:18;;;;;;;5.30;3.00;;;13.90;99.90;;;;;;5030509;28;20108;-47
2022/06/07 04:54:44;;;;;;;7.10;2.95;;;13.90;99.90;;;;;;5030981;28;20025;-46
2022/06/07 04:57:09;;;;;;;6.70;2.92;;;14.00;99.90;;;;;;5030627;28;20041;-47
2022/06/07 04:59:35;;;;;;;3.88;2.80;;;14.10;99.90;;;;;;5030156;28;20033;-46
2022/06/07 05:02:00;;;;;;;3.50;2.67;;;14.10;99.90;;;;;;5029924;28;20026;-48
2022/06/07 05:04:26;;;;;;;7.63;2.63;;;14.20;99.90;;;;;;5019658;28;20506;-46
2022/06/07 05:06:51;;;;;;;4.13;2.53;;;14.30;99.90;;;;;;5010780;28;20026;-48
2022/06/07 05:09:20;;;;;;;6.38;3.22;;;14.30;99.90;;;;;;5010698;28;20084;-48
2022/06/07 05:11:51;;;;;;;6.32;2.50;;;14.40;99.90;;;;;;5021645;28;20036;-48
2022/06/07 05:14:17;;;;;;;7.82;2.72;;;14.40;99.90;;;;;;5029933;28;20632;-46
2022/06/07 05:16:43;;;;;;;7.25;2.88;;;14.40;99.90;;;;;;5029821;28;20029;-48
2022/06/07 05:19:10;;;;;;;6.07;2.58;;;14.50;99.90;;;;;;5028760;28;20044;-46
2022/06/07 05:21:38;;;;;;;11.23;5.45;;;14.50;99.90;;;;;;5029738;28;20054;-47
2022/06/07 05:24:04;;;;;;;18.08;11.85;;;14.50;99.90;;;;;;5030183;28;20033;-47
2022/06/07 05:26:52;;;;;;;7.35;3.10;;;14.50;99.90;;;;;;5030313;28;20037;-47
2022/06/07 05:29:23;;;;;;;8.07;3.10;;;14.60;99.90;;;;;;5028749;28;20025;-48
2022/06/07 05:31:49;;;;;;;8.95;2.95;;;14.70;99.90;;;;;;5028468;28;20021;-47
2022/06/07 05:34:15;;;;;;;4.55;2.53;;;14.70;99.90;;;;;;5029270;28;20429;-47
2022/06/07 05:36:41;;;;;;;5.72;2.90;;;14.70;99.90;;;;;;5024501;28;20030;-48
2022/06/07 05:39:18;;;;;;;7.40;2.88;;;14.80;99.90;;;;;;5029061;28;20025;-47
2022/06/07 05:41:43;;;;;;;6.43;2.50;;;14.90;99.90;;;;;;5026772;28;20060;-45
2022/06/07 05:44:09;;;;;;;6.97;2.60;;;15.00;99.90;;;;;;5028176;28;20049;-46
2022/06/07 05:46:35;;;;;;;3.78;2.47;;;15.10;99.90;;;;;;5027726;28;20033;-46
2022/06/07 05:49:00;;;;;;;5.07;2.40;;;15.10;99.90;;;;;;5013707;28;20136;-46
2022/06/07 05:51:26;;;;;;;4.05;2.40;;;15.10;99.90;;;;;;5022003;28;20058;-46
2022/06/07 05:53:54;;;;;;;4.28;3.00;;;15.20;99.90;;;;;;5021503;28;20060;-46
2022/06/07 05:56:20;;;;;;;8.88;2.80;;;15.30;99.90;;;;;;5014823;28;20030;-46
2022/06/07 05:58:48;;;;;;;4.35;2.30;;;15.40;99.90;;;;;;5026127;28;20028;-49
2022/06/07 06:01:15;;;;;;;3.75;2.33;;;15.60;99.90;;;;;;5014614;28;20025;-46
2022/06/07 06:03:41;;;;;;;4.72;2.20;;;15.60;99.90;;;;;;5028802;28;20487;-47
2022/06/07 06:06:07;;;;;;;4.32;2.00;;;15.80;99.90;;;;;;5029586;28;20088;-47
2022/06/07 06:11:20;;;;;;;5.90;2.33;;;15.90;99.90;;;;;;5025767;28;20079;-48
2022/06/07 06:13:45;;;;;;;5.20;2.70;;;16.00;99.90;;;;;;5028595;28;20102;-47
2022/06/07 06:16:14;;;;;;;3.58;2.03;;;16.20;99.90;;;;;;5027365;28;20041;-46
2022/06/07 06:18:43;;;;;;;9.05;2.60;;;16.30;99.90;;;;;;5028693;28;20160;-46
2022/06/07 06:21:09;;;;;;;5.82;2.38;;;16.40;99.90;;;;;;5027692;28;20174;-48
2022/06/07 06:23:34;;;;;;;3.88;2.42;;;16.40;99.90;;;;;;5025413;28;20062;-47
2022/06/07 06:26:00;;;;;;;3.97;2.30;;;16.50;99.90;;;;;;5009581;28;20468;-48
2022/06/07 06:28:26;;;;;;;6.07;2.83;;;16.50;99.90;;;;;;5009534;28;20663;-49
2022/06/07 06:30:53;;;;;;;5.45;2.58;;;16.60;99.90;;;;;;5009118;28;20093;-47
2022/06/07 06:33:19;;;;;;;4.25;3.17;;;16.60;99.90;;;;;;5009056;28;20026;-48
2022/06/07 06:35:51;;;;;;;2.83;2.20;;;16.70;99.90;;;;;;5009263;28;20025;-50
2022/06/07 06:38:17;;;;;;;5.93;2.72;;;16.80;99.90;;;;;;5009496;28;20030;-46
2022/06/07 06:40:45;;;;;;;4.20;2.85;;;16.80;99.90;;;;;;5008897;28;20026;-46
2022/06/07 06:43:11;;;;;;;4.63;2.33;;;16.90;99.90;;;;;;5009576;28;20041;-47
2022/06/07 06:45:38;;;;;;;4.50;2.53;;;16.90;99.90;;;;;;5009299;28;20049;-47
2022/06/07 06:48:03;;;;;;;7.05;2.78;;;17.00;99.90;;;;;;5008821;28;20026;-47
2022/06/07 06:50:29;;;;;;;5.93;3.20;;;17.00;99.90;;;;;;5008292;28;20022;-47
2022/06/07 06:52:55;;;;;;;13.95;3.08;;;17.10;99.90;;;;;;5028474;28;20033;-48
2022/06/07 06:55:21;;;;;;;10.63;2.80;;;17.20;99.90;;;;;;5010657;28;20169;-48
2022/06/07 06:57:48;;;;;;;4.53;2.90;;;17.20;99.90;;;;;;5008872;28;20535;-46
2022/06/07 07:00:15;;;;;;;7.38;2.85;;;17.30;99.90;;;;;;5008332;28;20491;-46
2022/06/07 07:02:41;;;;;;;6.13;2.70;;;17.30;99.90;;;;;;5007431;28;20057;-47
2022/06/07 07:05:07;;;;;;;4.30;2.42;;;17.50;99.90;;;;;;5008705;28;20046;-48
2022/06/07 07:07:32;;;;;;;3.72;2.53;;;17.50;99.90;;;;;;5008907;28;20119;-47
2022/06/07 07:09:58;;;;;;;4.35;2.42;;;17.60;99.90;;;;;;5008316;28;20654;-47
2022/06/07 07:12:24;;;;;;;4.70;2.28;;;17.60;99.90;;;;;;5008830;28;20434;-48
2022/06/07 07:14:49;;;;;;;6.78;2.67;;;17.70;99.90;;;;;;5008837;28;20203;-47
2022/06/07 07:17:15;;;;;;;4.80;2.38;;;17.80;99.90;;;;;;5008558;28;20022;-45
2022/06/07 07:19:41;;;;;;;4.60;2.45;;;17.80;99.90;;;;;;5006894;28;20398;-46
2022/06/07 07:22:06;;;;;;;10.48;2.97;;;17.90;99.90;;;;;;5021877;28;20547;-47
2022/06/07 07:24:32;;;;;;;6.10;2.08;;;18.00;99.90;;;;;;5018713;28;20057;-49
2022/06/07 07:26:58;;;;;;;6.90;1.98;;;18.10;99.90;;;;;;5012896;28;20045;-49
2022/06/07 07:29:24;;;;;;;5.05;2.17;;;18.30;99.90;;;;;;5019882;28;20018;-46
2022/06/07 07:31:50;;;;;;;6.45;2.55;;;18.30;99.90;;;;;;5030117;28;20494;-49
2022/06/07 07:34:17;;;;;;;4.20;1.83;;;18.40;99.90;;;;;;5031509;28;20022;-47
2022/06/07 07:36:48;;;;;;;7.40;2.58;;;18.50;99.90;;;;;;5030912;28;20060;-47
2022/06/07 07:39:14;;;;;;;6.20;1.88;;;18.60;99.30;;;;;;5032290;28;20146;-48
2022/06/07 07:41:41;;;;;;;6.65;1.70;;;18.70;97.70;;;;;;5030327;28;20371;-47
2022/06/07 07:44:11;;;;;;;4.50;1.40;;;18.80;96.70;;;;;;5032218;28;20021;-48
2022/06/07 07:46:38;;;;;;;2.05;1.10;;;19.00;95.40;;;;;;5032264;28;20026;-48
2022/06/07 07:49:05;;;;;;;5.75;1.13;;;19.10;94.40;;;;;;5031839;28;20144;-46
2022/06/07 07:51:37;;;;;;;2.30;1.10;;;19.20;93.40;;;;;;5031273;28;20017;-50
2022/06/07 07:54:04;;;;;;;2.05;1.52;;;19.20;92.00;;;;;;5024819;28;20022;-49
2022/06/07 07:56:30;;;;;;;1.23;1.02;;;19.40;91.50;;;;;;5010973;28;20084;-47
2022/06/07 07:58:57;;;;;;;2.95;1.50;;;19.40;91.80;;;;;;5012249;28;20419;-47
2022/06/07 08:01:26;;;;;;;4.97;1.42;;;19.40;91.40;;;;;;5011276;28;20124;-50
2022/06/07 08:03:54;;;;;;;4.20;1.30;;;19.60;91.60;;;;;;5011919;28;20200;-47
2022/06/07 08:06:21;;;;;;;4.78;1.48;;;19.80;91.40;;;;;;5012070;28;20041;-48
2022/06/07 08:08:49;;;;;;;5.15;1.38;;;20.10;91.60;;;;;;5011603;28;20032;-50
2022/06/07 08:11:16;;;;;;;6.18;1.80;;;20.70;91.00;;;;;;5011699;28;20352;-49
2022/06/07 08:13:42;;;;;;;4.75;1.30;;;21.50;86.20;;;;;;5011923;28;20033;-48
2022/06/07 08:16:08;;;;;;;2.13;0.93;;;22.40;84.10;;;;;;5010388;28;20042;-47
2022/06/07 08:18:35;;;;;;;3.25;1.00;;;23.20;82.60;;;;;;5021994;28;20402;-55
2022/06/07 08:21:08;;;;;;;2.50;1.23;;;24.10;79.10;;;;;;5030946;28;20459;-50
2022/06/07 08:23:35;;;;;;;2.05;1.33;;;24.70;74.20;;;;;;5038789;28;20048;-49
2022/06/07 08:26:04;;;;;;;2.20;1.20;;;25.30;70.20;;;;;;5030061;28;20133;-45
2022/06/07 08:28:29;;;;;;;3.55;1.13;;;26.00;68.00;;;;;;5031506;28;20037;-46
2022/06/07 08:30:55;;;;;;;3.25;1.17;;;26.40;65.60;;;;;;5031095;28;20029;-46
2022/06/07 08:39:02;;;;;;;3.42;1.30;;;27.60;60.80;;;;;;5031923;28;20043;-46
2022/06/07 08:41:42;;;;;;;2.33;1.13;;;27.90;57.80;;;;;;5030360;28;20022;-46
2022/06/07 08:44:16;;;;;;;1.88;1.08;;;28.70;57.60;;;;;;5031093;28;20055;-50
2022/06/07 08:46:41;;;;;;;1.15;0.85;;;28.10;56.20;;;;;;5031115;28;20445;-47
2022/06/07 08:49:10;;;;;;;4.45;1.52;;;28.30;57.90;;;;;;5030835;28;20029;-47
2022/06/07 08:51:49;;;;;;;2.15;1.10;;;29.10;55.40;;;;;;5029031;28;20379;-47
2022/06/07 08:54:20;;;;;;;25.83;17.90;;;28.10;55.00;;;;;;5021821;28;20026;-48
2022/06/07 08:56:47;;;;;;;4.20;3.42;;;28.40;54.70;;;;;;5011165;28;20018;-48
2022/06/07 08:59:17;;;;;;;3.42;1.10;;;28.60;53.60;;;;;;5011137;28;20045;-48
2022/06/07 09:02:05;;;;;;;3.17;1.40;;;28.10;56.20;;;;;;5028585;28;20112;-49
2022/06/07 09:04:36;;;;;;;1.58;0.80;;;29.20;51.80;;;;;;5027503;28;20168;-47
2022/06/07 09:07:13;;;;;;;1.52;1.00;;;28.90;53.00;;;;;;5031746;28;20352;-50
2022/06/07 09:12:30;;;;;;;1.48;1.08;;;29.10;50.10;;;;;;5030740;28;20036;-51
2022/06/07 09:15:12;;;;;;;2.00;0.90;;;28.90;52.10;;;;;;5029491;28;20025;-50
2022/06/07 09:17:55;;;;;;;2.97;0.90;;;28.70;52.10;;;;;;5029283;28;20505;-49
2022/06/07 09:20:23;;;;;;;0.95;0.80;;;28.40;51.40;;;;;;5029315;28;20033;-48
2022/06/07 09:22:50;;;;;;;3.15;1.00;;;27.70;52.10;;;;;;5031866;28;20025;-50
2022/06/07 09:25:27;;;;;;;3.05;1.08;;;28.80;51.00;;;;;;5029441;28;20022;-51
2022/06/07 09:27:53;;;;;;;1.42;0.80;;;27.70;50.20;;;;;;5031413;28;20026;-47
2022/06/07 09:30:28;;;;;;;2.22;1.27;;;28.20;53.30;;;;;;5018932;28;20383;-50
2022/06/07 09:32:54;;;;;;;1.40;0.77;;;29.70;50.20;;;;;;5020562;28;20063;-52
2022/06/07 09:35:42;;;;;;;5.68;1.23;;;29.70;49.10;;;;;;5021956;28;20105;-50
2022/06/07 09:38:21;;;;;;;3.90;1.10;;;29.40;47.80;;;;;;5023382;28;20030;-50
2022/06/07 09:40:52;;;;;;;2.60;1.10;;;30.00;52.00;;;;;;5022131;28;20171;-51
2022/06/07 09:43:22;;;;;;;3.72;0.88;;;30.90;50.00;;;;;;5022534;28;20735;-48
2022/06/07 09:45:55;;;;;;;3.95;1.17;;;31.60;49.80;;;;;;5020987;28;20033;-50
2022/06/07 09:48:46;;;;;;;2.25;0.90;;;31.30;48.20;;;;;;5027392;28;20026;-49
2022/06/07 09:51:16;;;;;;;3.85;0.88;;;31.90;47.50;;;;;;5029654;28;20508;-47
2022/06/07 09:53:47;;;;;;;2.88;0.95;;;32.20;46.30;;;;;;5029182;28;20390;-49
2022/06/07 09:56:18;;;;;;;2.50;0.77;;;31.10;46.90;;;;;;5029555;28;20075;-50
2022/06/07 09:59:12;;;;;;;1.05;0.60;;;31.50;46.60;;;;;;5024105;28;20574;-50
2022/06/07 10:01:49;;;;;;;1.00;0.80;;;31.10;45.90;;;;;;5029744;28;20419;-49
2022/06/07 10:04:30;;;;;;;2.10;0.80;;;30.90;44.00;;;;;;5029892;28;20120;-49
2022/06/07 10:07:09;;;;;;;1.70;0.80;;;31.20;45.90;;;;;;5030286;28;20017;-49
2022/06/07 10:09:59;;;;;;;2.03;1.00;;;31.00;45.80;;;;;;5029843;28;20018;-48
2022/06/07 10:12:34;;;;;;;1.92;0.82;;;31.30;46.20;;;;;;5024570;28;20060;-50
2022/06/07 10:15:22;;;;;;;2.55;1.08;;;31.50;44.70;;;;;;5022623;28;20037;-48
2022/06/07 10:18:12;;;;;;;3.40;2.92;;;32.10;44.70;;;;;;5020675;28;20147;-48
2022/06/07 10:20:55;;;;;;;3.35;1.10;;;32.40;44.80;;;;;;5018790;28;20022;-48
2022/06/07 10:23:55;;;;;;;1.73;0.90;;;30.80;45.10;;;;;;5029051;28;20029;-46
2022/06/07 10:26:32;;;;;;;3.58;1.00;;;31.00;46.60;;;;;;5028920;28;20022;-49
2022/06/07 10:29:18;;;;;;;1.80;0.70;;;30.90;45.50;;;;;;5023486;28;20088;-50
2022/06/07 10:32:04;;;;;;;3.65;0.77;;;29.50;48.30;;;;;;5020256;28;20022;-50
2022/06/07 10:34:52;;;;;;;1.67;0.80;;;29.40;48.30;;;;;;5020574;28;20072;-50
2022/06/07 10:37:46;;;;;;;1.33;0.93;;;29.70;50.20;;;;;;5020756;28;20029;-48
2022/06/07 10:40:29;;;;;;;1.70;0.95;;;29.40;48.80;;;;;;5020001;28;20064;-50
2022/06/07 10:43:23;;;;;;;2.72;1.10;;;29.50;49.70;;;;;;5020528;28;20076;-46
2022/06/07 10:45:54;;;;;;;2.00;1.17;;;28.70;49.50;;;;;;5019443;28;20490;-46
2022/06/07 10:48:27;;;;;;;3.10;1.10;;;27.30;51.00;;;;;;5024755;28;20569;-50
2022/06/07 10:51:03;;;;;;;2.40;1.25;;;26.40;52.30;;;;;;5028103;28;20045;-46
2022/06/07 10:53:39;;;;;;;3.72;1.42;;;25.10;53.80;;;;;;5026646;28;20021;-46
2022/06/07 10:56:16;;;;;;;2.03;1.17;;;25.40;56.70;;;;;;5029994;28;20156;-46
2022/06/07 10:58:46;;;;;;;3.63;1.02;;;25.80;55.40;;;;;;5028737;28;20057;-48
2022/06/07 11:01:27;;;;;;;1.48;1.00;;;26.70;54.40;;;;;;5029474;28;20029;-47
2022/06/07 11:04:11;;;;;;;2.20;0.70;;;28.00;53.90;;;;;;5028218;28;20056;-49
2022/06/07 11:09:42;;;;;;;2.28;1.10;;;29.10;51.00;;;;;;5028209;28;20113;-48
2022/06/07 11:12:36;;;;;;;6.25;1.08;;;29.40;50.40;;;;;;5022295;28;20030;-49
2022/06/07 11:15:25;;;;;;;1.73;1.10;;;29.00;49.90;;;;;;5017618;28;20528;-46
2022/06/07 11:18:20;;;;;;;3.53;1.03;;;27.90;50.10;;;;;;5030060;28;20033;-46
2022/06/07 11:21:01;;;;;;;2.55;0.80;;;28.00;52.90;;;;;;5029208;28;20125;-47
2022/06/07 11:23:45;;;;;;;1.58;1.17;;;28.50;50.50;;;;;;5027300;28;20025;-49
2022/06/07 11:26:17;;;;;;;1.48;0.77;;;28.70;50.50;;;;;;5010441;28;20041;-46
2022/06/07 11:28:48;;;;;;;4.15;1.08;;;28.60;51.10;;;;;;5010356;28;20037;-50
2022/06/07 11:31:23;;;;;;;2.10;0.90;;;29.20;49.80;;;;;;5009769;28;20018;-49
2022/06/07 11:33:51;;;;;;;1.80;0.88;;;29.00;48.70;;;;;;5010154;28;20021;-48
2022/06/07 11:36:20;;;;;;;44.55;39.80;;;29.40;47.70;;;;;;5010415;28;20030;-47
2022/06/07 11:38:55;;;;;;;2.53;1.10;;;27.90;49.40;;;;;;5010336;28;20026;-46
2022/06/07 11:41:38;;;;;;;3.13;1.83;;;27.50;50.20;;;;;;5009899;28;20112;-49
2022/06/07 11:44:10;;;;;;;2.13;0.90;;;27.30;52.00;;;;;;5008936;28;20030;-49
2022/06/07 11:46:35;;;;;;;2.00;1.00;;;27.10;51.60;;;;;;5009793;28;20059;-50
2022/06/07 11:49:26;;;;;;;3.88;1.02;;;26.50;53.30;;;;;;5029674;28;20113;-49
2022/06/07 11:52:13;;;;;;;2.88;0.90;;;26.90;51.80;;;;;;5029146;28;20370;-48
2022/06/07 11:54:53;;;;;;;1.10;0.90;;;28.10;53.10;;;;;;5022247;28;20112;-51
2022/06/07 11:57:31;;;;;;;;;;;28.80;51.10;;;;;;5026332;28;20037;-47
2022/06/07 11:59:58;;;;;;;1.35;0.65;;;29.40;50.20;;;;;;5028687;28;20302;-48
2022/06/07 12:03:03;;;;;;;2.58;1.00;;;29.60;47.60;;;;;;5029348;28;20025;-45
2022/06/07 12:05:40;;;;;;;2.75;0.82;;;29.60;49.30;;;;;;5028948;28;20524;-49
2022/06/07 12:08:29;;;;;;;2.38;1.10;;;29.30;47.70;;;;;;5028802;28;20098;-51
2022/06/07 12:11:23;;;;;;;1.60;0.80;;;29.30;47.90;;;;;;5029154;28;20010;-47
2022/06/07 12:14:10;;;;;;;1.13;0.68;;;28.30;47.10;;;;;;5027963;28;20407;-46
2022/06/07 12:16:50;;;;;;;1.33;0.77;;;28.00;48.80;;;;;;5031548;28;20370;-49
2022/06/07 12:19:18;;;;;;;2.35;1.15;;;28.20;50.80;;;;;;5031059;28;20033;-50
2022/06/07 12:21:51;;;;;;;1.55;0.80;;;27.30;49.70;;;;;;5029874;28;20124;-49
2022/06/07 12:24:17;;;;;;;2.17;0.93;;;27.40;50.10;;;;;;5032426;28;20635;-48
2022/06/07 12:26:46;;;;;;;1.10;0.80;;;27.60;50.80;;;;;;5032613;28;20021;-47
2022/06/07 12:29:29;;;;;;;1.30;0.88;;;27.00;50.40;;;;;;5032795;28;20025;-49
2022/06/07 12:31:56;;;;;;;2.10;0.70;;;26.50;50.20;;;;;;5032220;28;20036;-50
2022/06/07 12:34:29;;;;;;;1.55;0.80;;;26.40;52.50;;;;;;5032399;28;20017;-47
2022/06/07 12:37:16;;;;;;;1.38;0.80;;;26.60;50.40;;;;;;5032519;28;20671;-47
2022/06/07 12:39:49;;;;;;;6.63;0.70;;;26.60;51.50;;;;;;5032115;28;20025;-47
2022/06/07 12:42:16;;;;;;;3.15;1.00;;;26.30;47.00;;;;;;5032398;28;20017;-47
2022/06/07 12:44:54;;;;;;;2.83;1.05;;;26.70;49.00;;;;;;5032513;28;20112;-49
2022/06/07 12:47:33;;;;;;;2.03;1.00;;;26.80;48.00;;;;;;5032654;28;20033;-46
2022/06/07 12:49:59;;;;;;;5.20;0.80;;;26.40;48.20;;;;;;5029991;28;20022;-49
2022/06/07 12:52:28;;;;;;;1.95;0.85;;;26.50;49.20;;;;;;5031845;28;20117;-49
2022/06/07 12:55:11;;;;;;;1.55;0.77;;;26.80;48.60;;;;;;5028062;28;20026;-49
2022/06/07 12:57:52;;;;;;;2.88;0.93;;;26.60;47.40;;;;;;5026041;28;20030;-47
2022/06/07 13:00:21;;;;;;;1.40;1.02;;;26.20;50.10;;;;;;5029128;28;20360;-49
2022/06/07 13:02:52;;;;;;;3.77;0.90;;;26.50;52.70;;;;;;5032650;28;20029;-47
2022/06/07 13:05:26;;;;;;;1.52;0.80;;;26.70;49.00;;;;;;5032394;28;20145;-48
2022/06/07 13:07:53;;;;;;;1.80;1.00;;;26.70;51.10;;;;;;5031361;28;20463;-49
2022/06/07 13:10:22;;;;;;;2.20;0.80;;;26.80;49.00;;;;;;5031943;28;20021;-47
2022/06/07 13:12:50;;;;;;;2.88;0.98;;;26.50;48.90;;;;;;5032268;28;20029;-48
2022/06/07 13:15:21;;;;;;;1.65;1.10;;;26.50;49.70;;;;;;5032259;28;20045;-48
2022/06/07 13:18:06;;;;;;;2.70;1.10;;;26.60;49.10;;;;;;5032414;28;20076;-47
2022/06/07 13:20:42;;;;;;;4.60;1.10;;;26.70;49.10;;;;;;5031103;28;20037;-47
2022/06/07 13:23:28;;;;;;;3.03;1.08;;;26.60;51.20;;;;;;5031736;28;20022;-46